sensor_id;sensor_type;location;lat;lon;timestamp;pressure;altitude;pressure_sealevel;temperature;humidity
41334;BME280;27078;46.428;6.256;2023-05-22T00:00:10;96239.66;;;15.54;100.00
41334;BME280;27078;46.428;6.256;2023-05-22T00:02:37;96234.31;;;15.54;100.00
41334;BME280;27078;46.428;6.256;2023-05-22T00:05:10;96237.16;;;15.52;100.00
41334;BME280;27078;46.428;6.256;2023-05-22T00:07:36;96231.81;;;15.52;100.00
41334;BME280;27078;46.428;6.256;2023-05-22T00:10:02;96236.31;;;15.52;100.00
41334;BME280;27078;46.428;6.256;2023-05-22T00:12:28;96231.47;;;15.55;100.00
41334;BME280;27078;46.428;6.256;2023-05-22T00:14:53;96229.31;;;15.59;100.00
41334;BME280;27078;46.428;6.256;2023-05-22T00:17:19;96230.44;;;15.73;100.00
41334;BME280;27078;46.428;6.256;2023-05-22T00:19:44;96221.75;;;15.79;100.00
41334;BME280;27078;46.428;6.256;2023-05-22T00:22:10;96226.56;;;15.83;100.00
41334;BME280;27078;46.428;6.256;2023-05-22T00:24:35;96220.84;;;15.95;100.00
41334;BME280;27078;46.428;6.256;2023-05-22T00:27:01;96219.31;;;16.00;100.00
41334;BME280;27078;46.428;6.256;2023-05-22T00:29:26;96220.00;;;15.94;100.00
41334;BME280;27078;46.428;6.256;2023-05-22T00:31:52;96222.06;;;15.84;100.00
41334;BME280;27078;46.428;6.256;2023-05-22T00:34:17;96222.47;;;15.73;100.00
41334;BME280;27078;46.428;6.256;2023-05-22T00:36:43;96226.13;;;15.63;100.00
41334;BME280;27078;46.428;6.256;2023-05-22T00:39:08;96228.16;;;15.53;100.00
41334;BME280;27078;46.428;6.256;2023-05-22T00:41:33;96231.84;;;15.44;100.00
41334;BME280;27078;46.428;6.256;2023-05-22T00:43:59;96231.53;;;15.39;100.00
41334;BME280;27078;46.428;6.256;2023-05-22T00:46:25;96247.84;;;15.36;100.00
41334;BME280;27078;46.428;6.256;2023-05-22T00:48:50;96237.06;;;15.29;100.00
41334;BME280;27078;46.428;6.256;2023-05-22T00:51:22;96236.56;;;15.17;100.00
41334;BME280;27078;46.428;6.256;2023-05-22T00:53:48;96235.25;;;15.13;100.00
41334;BME280;27078;46.428;6.256;2023-05-22T00:56:14;96237.91;;;15.13;100.00
41334;BME280;27078;46.428;6.256;2023-05-22T00:58:40;96232.94;;;15.10;100.00
41334;BME280;27078;46.428;6.256;2023-05-22T01:01:08;96239.28;;;15.09;100.00
41334;BME280;27078;46.428;6.256;2023-05-22T01:03:35;96245.56;;;15.08;100.00
41334;BME280;27078;46.428;6.256;2023-05-22T01:06:06;96250.59;;;15.03;100.00
41334;BME280;27078;46.428;6.256;2023-05-22T01:08:31;96249.72;;;15.02;100.00
41334;BME280;27078;46.428;6.256;2023-05-22T01:11:04;96251.25;;;15.05;100.00
41334;BME280;27078;46.428;6.256;2023-05-22T01:14:03;96239.44;;;15.07;100.00
41334;BME280;27078;46.428;6.256;2023-05-22T01:19:40;96244.75;;;14.99;100.00
41334;BME280;27078;46.428;6.256;2023-05-22T01:30:59;96231.00;;;14.63;100.00
41334;BME280;27078;46.428;6.256;2023-05-22T01:33:27;96236.28;;;14.46;100.00
41334;BME280;27078;46.428;6.256;2023-05-22T01:35:56;96224.00;;;14.37;100.00
41334;BME280;27078;46.428;6.256;2023-05-22T01:38:23;96234.44;;;14.22;100.00
41334;BME280;27078;46.428;6.256;2023-05-22T01:40:49;96230.94;;;14.14;100.00
41334;BME280;27078;46.428;6.256;2023-05-22T01:43:16;96225.94;;;14.02;100.00
41334;BME280;27078;46.428;6.256;2023-05-22T01:45:41;96227.25;;;13.98;100.00
41334;BME280;27078;46.428;6.256;2023-05-22T01:48:07;96222.59;;;13.92;100.00
41334;BME280;27078;46.428;6.256;2023-05-22T01:50:32;96219.91;;;13.84;100.00
41334;BME280;27078;46.428;6.256;2023-05-22T01:53:23;96226.38;;;13.81;100.00
41334;BME280;27078;46.428;6.256;2023-05-22T01:55:59;96223.88;;;13.80;100.00
41334;BME280;27078;46.428;6.256;2023-05-22T02:01:11;96222.88;;;13.73;100.00
41334;BME280;27078;46.428;6.256;2023-05-22T02:03:38;96223.41;;;13.76;100.00
41334;BME280;27078;46.428;6.256;2023-05-22T02:06:05;96224.84;;;13.71;100.00
41334;BME280;27078;46.428;6.256;2023-05-22T02:08:32;96228.16;;;13.64;100.00
41334;BME280;27078;46.428;6.256;2023-05-22T02:11:00;96232.78;;;13.62;100.00
41334;BME280;27078;46.428;6.256;2023-05-22T02:13:27;96230.13;;;13.62;100.00
41334;BME280;27078;46.428;6.256;2023-05-22T02:15:53;96228.97;;;13.57;100.00
41334;BME280;27078;46.428;6.256;2023-05-22T02:18:19;96235.06;;;13.49;100.00
41334;BME280;27078;46.428;6.256;2023-05-22T02:20:45;96241.47;;;13.38;100.00
41334;BME280;27078;46.428;6.256;2023-05-22T02:23:11;96247.88;;;13.28;100.00
41334;BME280;27078;46.428;6.256;2023-05-22T02:25:36;96251.25;;;13.12;100.00
41334;BME280;27078;46.428;6.256;2023-05-22T02:28:01;96257.16;;;13.06;100.00
41334;BME280;27078;46.428;6.256;2023-05-22T02:30:27;96255.09;;;13.17;100.00
41334;BME280;27078;46.428;6.256;2023-05-22T02:32:52;96250.13;;;13.22;100.00
41334;BME280;27078;46.428;6.256;2023-05-22T02:35:18;96252.50;;;13.26;100.00
41334;BME280;27078;46.428;6.256;2023-05-22T02:37:44;96252.97;;;13.21;100.00
41334;BME280;27078;46.428;6.256;2023-05-22T02:40:09;96247.97;;;13.18;100.00
41334;BME280;27078;46.428;6.256;2023-05-22T02:42:35;96246.78;;;13.12;100.00
41334;BME280;27078;46.428;6.256;2023-05-22T02:45:00;96253.84;;;13.03;100.00
41334;BME280;27078;46.428;6.256;2023-05-22T02:47:26;96254.63;;;12.96;100.00
41334;BME280;27078;46.428;6.256;2023-05-22T02:49:51;96254.56;;;12.88;100.00
41334;BME280;27078;46.428;6.256;2023-05-22T02:52:16;96254.84;;;12.76;100.00
41334;BME280;27078;46.428;6.256;2023-05-22T02:54:42;96249.47;;;12.68;100.00
41334;BME280;27078;46.428;6.256;2023-05-22T02:57:08;96250.22;;;12.60;100.00
41334;BME280;27078;46.428;6.256;2023-05-22T02:59:33;96245.16;;;12.67;100.00
41334;BME280;27078;46.428;6.256;2023-05-22T03:02:01;96242.22;;;12.70;100.00
41334;BME280;27078;46.428;6.256;2023-05-22T03:04:26;96248.25;;;12.62;100.00
41334;BME280;27078;46.428;6.256;2023-05-22T03:06:53;96240.84;;;12.66;100.00
41334;BME280;27078;46.428;6.256;2023-05-22T03:09:19;96250.78;;;12.64;100.00
41334;BME280;27078;46.428;6.256;2023-05-22T03:11:45;96246.06;;;12.58;100.00
41334;BME280;27078;46.428;6.256;2023-05-22T03:14:10;96244.47;;;12.65;100.00
41334;BME280;27078;46.428;6.256;2023-05-22T03:16:35;96245.94;;;12.59;100.00
41334;BME280;27078;46.428;6.256;2023-05-22T03:19:11;96238.66;;;12.61;100.00
41334;BME280;27078;46.428;6.256;2023-05-22T03:21:36;96252.41;;;12.65;100.00
41334;BME280;27078;46.428;6.256;2023-05-22T03:24:02;96247.06;;;12.57;100.00
41334;BME280;27078;46.428;6.256;2023-05-22T03:26:28;96252.34;;;12.57;100.00
41334;BME280;27078;46.428;6.256;2023-05-22T03:28:54;96257.66;;;12.57;100.00
41334;BME280;27078;46.428;6.256;2023-05-22T03:31:19;96252.34;;;12.57;100.00
41334;BME280;27078;46.428;6.256;2023-05-22T03:33:45;96248.41;;;12.61;100.00
41334;BME280;27078;46.428;6.256;2023-05-22T03:36:10;96242.44;;;12.59;100.00
41334;BME280;27078;46.428;6.256;2023-05-22T03:38:36;96246.16;;;12.66;100.00
41334;BME280;27078;46.428;6.256;2023-05-22T03:41:01;96244.25;;;12.76;100.00
41334;BME280;27078;46.428;6.256;2023-05-22T03:43:26;96242.41;;;12.77;100.00
41334;BME280;27078;46.428;6.256;2023-05-22T03:45:52;96239.28;;;12.81;100.00
41334;BME280;27078;46.428;6.256;2023-05-22T03:48:17;96242.28;;;12.87;100.00
41334;BME280;27078;46.428;6.256;2023-05-22T03:50:42;96231.47;;;12.98;100.00
41334;BME280;27078;46.428;6.256;2023-05-22T03:53:07;96240.22;;;12.98;100.00
41334;BME280;27078;46.428;6.256;2023-05-22T03:55:33;96238.06;;;12.94;100.00
41334;BME280;27078;46.428;6.256;2023-05-22T03:57:58;96240.22;;;12.98;100.00
41334;BME280;27078;46.428;6.256;2023-05-22T04:00:23;96232.59;;;12.95;100.00
41334;BME280;27078;46.428;6.256;2023-05-22T04:02:49;96237.72;;;12.97;100.00
41334;BME280;27078;46.428;6.256;2023-05-22T04:05:15;96237.59;;;12.98;100.00
41334;BME280;27078;46.428;6.256;2023-05-22T04:07:40;96242.75;;;13.00;100.00
41334;BME280;27078;46.428;6.256;2023-05-22T04:10:19;96241.44;;;13.04;100.00
41334;BME280;27078;46.428;6.256;2023-05-22T04:12:47;96240.13;;;13.08;100.00
41334;BME280;27078;46.428;6.256;2023-05-22T04:15:12;96240.13;;;13.08;100.00
41334;BME280;27078;46.428;6.256;2023-05-22T04:17:38;96241.50;;;13.12;100.00
41334;BME280;27078;46.428;6.256;2023-05-22T04:20:05;96241.78;;;13.09;100.00
41334;BME280;27078;46.428;6.256;2023-05-22T04:22:30;96246.78;;;13.12;100.00
41334;BME280;27078;46.428;6.256;2023-05-22T04:24:57;96248.28;;;13.15;100.00
41334;BME280;27078;46.428;6.256;2023-05-22T04:27:22;96253.78;;;13.21;100.00
41334;BME280;27078;46.428;6.256;2023-05-22T04:29:48;96253.78;;;13.21;100.00
41334;BME280;27078;46.428;6.256;2023-05-22T04:32:14;96266.22;;;13.21;100.00
41334;BME280;27078;46.428;6.256;2023-05-22T04:34:46;96261.44;;;13.24;100.00
41334;BME280;27078;46.428;6.256;2023-05-22T04:37:11;96266.97;;;13.31;100.00
41334;BME280;27078;46.428;6.256;2023-05-22T04:39:39;96267.81;;;13.32;100.00
41334;BME280;27078;46.428;6.256;2023-05-22T04:42:04;96267.47;;;13.35;100.00
41334;BME280;27078;46.428;6.256;2023-05-22T04:44:31;96271.47;;;13.39;100.00
41334;BME280;27078;46.428;6.256;2023-05-22T04:47:01;96268.19;;;13.45;100.00
41334;BME280;27078;46.428;6.256;2023-05-22T04:49:26;96262.25;;;13.51;100.00
41334;BME280;27078;46.428;6.256;2023-05-22T04:51:54;96262.97;;;13.61;100.00
41334;BME280;27078;46.428;6.256;2023-05-22T04:54:19;96273.16;;;13.74;100.00
41334;BME280;27078;46.428;6.256;2023-05-22T04:56:45;96273.22;;;13.91;100.00
41334;BME280;27078;46.428;6.256;2023-05-22T04:59:10;96277.72;;;14.07;100.00
41334;BME280;27078;46.428;6.256;2023-05-22T05:01:40;96283.72;;;14.17;100.00
41334;BME280;27078;46.428;6.256;2023-05-22T05:04:08;96270.13;;;14.28;100.00
41334;BME280;27078;46.428;6.256;2023-05-22T05:06:34;96279.44;;;14.40;100.00
41334;BME280;27078;46.428;6.256;2023-05-22T05:08:59;96276.69;;;14.58;100.00
41334;BME280;27078;46.428;6.256;2023-05-22T05:11:26;96277.84;;;14.72;100.00
41334;BME280;27078;46.428;6.256;2023-05-22T05:13:51;96280.16;;;14.83;100.00
41334;BME280;27078;46.428;6.256;2023-05-22T05:16:16;96279.84;;;14.95;100.00
41334;BME280;27078;46.428;6.256;2023-05-22T05:18:42;96279.50;;;15.06;100.00
41334;BME280;27078;46.428;6.256;2023-05-22T05:21:07;96272.97;;;15.25;100.00
41334;BME280;27078;46.428;6.256;2023-05-22T05:23:33;96275.09;;;15.38;100.00
41334;BME280;27078;46.428;6.256;2023-05-22T05:25:58;96280.41;;;15.46;100.00
41334;BME280;27078;46.428;6.256;2023-05-22T05:28:23;96277.72;;;15.54;100.00
41334;BME280;27078;46.428;6.256;2023-05-22T05:30:49;96272.53;;;15.61;100.00
41334;BME280;27078;46.428;6.256;2023-05-22T05:33:14;96274.03;;;15.72;100.00
41334;BME280;27078;46.428;6.256;2023-05-22T05:35:40;96276.00;;;15.78;100.00
41334;BME280;27078;46.428;6.256;2023-05-22T05:38:05;96272.50;;;15.85;100.00
41334;BME280;27078;46.428;6.256;2023-05-22T05:40:30;96277.09;;;15.92;100.00
41334;BME280;27078;46.428;6.256;2023-05-22T05:42:56;96274.75;;;15.97;100.00
41334;BME280;27078;46.428;6.256;2023-05-22T05:45:21;96284.88;;;16.01;100.00
41334;BME280;27078;46.428;6.256;2023-05-22T05:47:46;96282.38;;;16.00;100.00
41334;BME280;27078;46.428;6.256;2023-05-22T05:50:12;96285.53;;;16.03;100.00
41334;BME280;27078;46.428;6.256;2023-05-22T05:52:39;96278.88;;;16.07;100.00
41334;BME280;27078;46.428;6.256;2023-05-22T05:55:05;96283.81;;;16.11;100.00
41334;BME280;27078;46.428;6.256;2023-05-22T05:57:30;96283.13;;;16.17;100.00
41334;BME280;27078;46.428;6.256;2023-05-22T05:59:55;96282.13;;;16.18;100.00
41334;BME280;27078;46.428;6.256;2023-05-22T06:02:21;96288.13;;;16.20;100.00
41334;BME280;27078;46.428;6.256;2023-05-22T06:04:46;96289.06;;;16.27;100.00
41334;BME280;27078;46.428;6.256;2023-05-22T06:07:13;96290.03;;;16.34;100.00
41334;BME280;27078;46.428;6.256;2023-05-22T06:09:38;96289.97;;;16.42;100.00
41334;BME280;27078;46.428;6.256;2023-05-22T06:12:04;96298.56;;;16.53;100.00
41334;BME280;27078;46.428;6.256;2023-05-22T06:14:30;96300.34;;;16.60;100.00
41334;BME280;27078;46.428;6.256;2023-05-22T06:16:55;96291.47;;;16.68;100.00
41334;BME280;27078;46.428;6.256;2023-05-22T06:19:21;96302.59;;;16.72;100.00
41334;BME280;27078;46.428;6.256;2023-05-22T06:21:46;96299.13;;;16.71;100.00
41334;BME280;27078;46.428;6.256;2023-05-22T06:24:12;96298.06;;;16.80;100.00
41334;BME280;27078;46.428;6.256;2023-05-22T06:26:37;96298.75;;;16.74;100.00
41334;BME280;27078;46.428;6.256;2023-05-22T06:29:02;96294.69;;;16.86;100.00
41334;BME280;27078;46.428;6.256;2023-05-22T06:31:29;96303.66;;;16.94;100.00
41334;BME280;27078;46.428;6.256;2023-05-22T06:33:56;96300.72;;;17.03;100.00
41334;BME280;27078;46.428;6.256;2023-05-22T06:36:21;96303.78;;;17.15;100.00
41334;BME280;27078;46.428;6.256;2023-05-22T06:38:46;96308.97;;;17.32;100.00
41334;BME280;27078;46.428;6.256;2023-05-22T06:41:13;96305.28;;;17.33;100.00
41334;BME280;27078;46.428;6.256;2023-05-22T06:43:38;96312.03;;;17.43;100.00
41334;BME280;27078;46.428;6.256;2023-05-22T06:46:04;96311.38;;;17.56;100.00
41334;BME280;27078;46.428;6.256;2023-05-22T06:48:34;96313.69;;;17.59;100.00
41334;BME280;27078;46.428;6.256;2023-05-22T06:51:00;96313.97;;;17.64;100.00
41334;BME280;27078;46.428;6.256;2023-05-22T06:53:25;96311.78;;;17.68;100.00
41334;BME280;27078;46.428;6.256;2023-05-22T06:55:50;96311.22;;;17.73;100.00
41334;BME280;27078;46.428;6.256;2023-05-22T06:58:16;96317.03;;;17.61;100.00
41334;BME280;27078;46.428;6.256;2023-05-22T07:00:41;96305.78;;;17.81;100.00
41334;BME280;27078;46.428;6.256;2023-05-22T07:03:06;96311.97;;;17.96;100.00
41334;BME280;27078;46.428;6.256;2023-05-22T07:05:32;96302.56;;;18.00;100.00
41334;BME280;27078;46.428;6.256;2023-05-22T07:07:57;96309.75;;;18.15;100.00
41334;BME280;27078;46.428;6.256;2023-05-22T07:10:22;96307.69;;;18.31;100.00
41334;BME280;27078;46.428;6.256;2023-05-22T07:12:51;96307.47;;;18.48;100.00
41334;BME280;27078;46.428;6.256;2023-05-22T07:15:16;96301.41;;;18.61;100.00
41334;BME280;27078;46.428;6.256;2023-05-22T07:17:42;96302.94;;;18.70;100.00
41334;BME280;27078;46.428;6.256;2023-05-22T07:20:08;96302.94;;;18.70;100.00
41334;BME280;27078;46.428;6.256;2023-05-22T07:22:36;96305.63;;;18.70;100.00
41334;BME280;27078;46.428;6.256;2023-05-22T07:25:01;96314.44;;;18.85;100.00
41334;BME280;27078;46.428;6.256;2023-05-22T07:27:26;96312.00;;;19.12;100.00
41334;BME280;27078;46.428;6.256;2023-05-22T07:29:52;96312.47;;;19.16;100.00
41334;BME280;27078;46.428;6.256;2023-05-22T07:32:17;96311.91;;;18.99;100.00
41334;BME280;27078;46.428;6.256;2023-05-22T07:34:42;96318.44;;;19.18;100.00
41334;BME280;27078;46.428;6.256;2023-05-22T07:37:12;96315.47;;;19.34;100.00
41334;BME280;27078;46.428;6.256;2023-05-22T07:39:38;96312.84;;;19.41;100.00
41334;BME280;27078;46.428;6.256;2023-05-22T07:42:04;96309.00;;;19.50;100.00
41334;BME280;27078;46.428;6.256;2023-05-22T07:44:29;96307.19;;;19.57;100.00
41334;BME280;27078;46.428;6.256;2023-05-22T07:46:55;96311.88;;;19.77;100.00
41334;BME280;27078;46.428;6.256;2023-05-22T07:49:22;96307.13;;;19.79;100.00
41334;BME280;27078;46.428;6.256;2023-05-22T07:51:48;96297.78;;;19.96;100.00
41334;BME280;27078;46.428;6.256;2023-05-22T07:54:14;96290.78;;;20.08;100.00
41334;BME280;27078;46.428;6.256;2023-05-22T07:56:40;96298.13;;;20.34;100.00
41334;BME280;27078;46.428;6.256;2023-05-22T07:59:05;96294.63;;;20.34;100.00
41334;BME280;27078;46.428;6.256;2023-05-22T08:01:31;96293.09;;;20.60;100.00
41334;BME280;27078;46.428;6.256;2023-05-22T08:03:57;96289.94;;;20.49;100.00
41334;BME280;27078;46.428;6.256;2023-05-22T08:06:22;96291.47;;;20.85;100.00
41334;BME280;27078;46.428;6.256;2023-05-22T08:08:48;96294.72;;;20.61;100.00
41334;BME280;27078;46.428;6.256;2023-05-22T08:11:14;96289.41;;;21.07;100.00
41334;BME280;27078;46.428;6.256;2023-05-22T08:13:39;96289.44;;;21.27;100.00
41334;BME280;27078;46.428;6.256;2023-05-22T08:16:05;96289.63;;;21.46;100.00
41334;BME280;27078;46.428;6.256;2023-05-22T08:18:30;96287.75;;;21.66;100.00
41334;BME280;27078;46.428;6.256;2023-05-22T08:20:56;96282.56;;;21.71;100.00
41334;BME280;27078;46.428;6.256;2023-05-22T08:23:21;96285.78;;;22.07;100.00
41334;BME280;27078;46.428;6.256;2023-05-22T08:25:46;96277.88;;;22.19;100.00
41334;BME280;27078;46.428;6.256;2023-05-22T08:28:12;96269.78;;;22.32;100.00
41334;BME280;27078;46.428;6.256;2023-05-22T08:30:37;96272.22;;;22.40;100.00
41334;BME280;27078;46.428;6.256;2023-05-22T08:33:03;96275.75;;;22.34;100.00
41334;BME280;27078;46.428;6.256;2023-05-22T08:35:28;96280.66;;;22.50;100.00
41334;BME280;27078;46.428;6.256;2023-05-22T08:37:53;96273.75;;;22.61;100.00
41334;BME280;27078;46.428;6.256;2023-05-22T08:40:19;96281.19;;;22.66;100.00
41334;BME280;27078;46.428;6.256;2023-05-22T08:42:45;96276.03;;;22.58;100.00
41334;BME280;27078;46.428;6.256;2023-05-22T08:45:12;96269.56;;;22.72;100.00
41334;BME280;27078;46.428;6.256;2023-05-22T08:47:41;96274.69;;;22.80;100.00
41334;BME280;27078;46.428;6.256;2023-05-22T08:50:09;96275.03;;;22.59;100.00
41334;BME280;27078;46.428;6.256;2023-05-22T08:52:41;96275.19;;;22.64;100.00
41334;BME280;27078;46.428;6.256;2023-05-22T08:55:10;96271.97;;;22.80;100.00
41334;BME280;27078;46.428;6.256;2023-05-22T08:57:37;96274.44;;;22.50;100.00
41334;BME280;27078;46.428;6.256;2023-05-22T09:00:03;96279.44;;;22.46;100.00
41334;BME280;27078;46.428;6.256;2023-05-22T09:02:28;96272.84;;;22.42;100.00
41334;BME280;27078;46.428;6.256;2023-05-22T09:04:55;96278.88;;;22.38;100.00
41334;BME280;27078;46.428;6.256;2023-05-22T09:07:21;96275.34;;;22.69;100.00
41334;BME280;27078;46.428;6.256;2023-05-22T09:09:48;96284.38;;;22.81;100.00
41334;BME280;27078;46.428;6.256;2023-05-22T09:12:13;96281.94;;;22.80;100.00
41334;BME280;27078;46.428;6.256;2023-05-22T09:14:40;96276.28;;;22.04;100.00
41334;BME280;27078;46.428;6.256;2023-05-22T09:17:07;96274.81;;;22.08;100.00
41334;BME280;27078;46.428;6.256;2023-05-22T09:19:32;96275.84;;;22.14;100.00
41334;BME280;27078;46.428;6.256;2023-05-22T09:22:02;96277.03;;;22.31;100.00
41334;BME280;27078;46.428;6.256;2023-05-22T09:24:28;96272.94;;;22.61;100.00
41334;BME280;27078;46.428;6.256;2023-05-22T09:26:54;96275.22;;;22.89;100.00
41334;BME280;27078;46.428;6.256;2023-05-22T09:29:19;96275.44;;;22.87;100.00
41334;BME280;27078;46.428;6.256;2023-05-22T09:31:44;96281.63;;;22.94;100.00
41334;BME280;27078;46.428;6.256;2023-05-22T09:34:11;96274.78;;;22.92;100.00
41334;BME280;27078;46.428;6.256;2023-05-22T09:36:38;96269.91;;;22.82;100.00
41334;BME280;27078;46.428;6.256;2023-05-22T09:39:03;96271.81;;;23.07;100.00
41334;BME280;27078;46.428;6.256;2023-05-22T09:41:33;96267.81;;;23.41;100.00
41334;BME280;27078;46.428;6.256;2023-05-22T09:43:59;96266.00;;;23.35;100.00
41334;BME280;27078;46.428;6.256;2023-05-22T09:46:25;96268.41;;;23.18;100.00
41334;BME280;27078;46.428;6.256;2023-05-22T09:48:51;96263.16;;;23.48;100.00
41334;BME280;27078;46.428;6.256;2023-05-22T09:51:19;96260.41;;;23.55;100.00
41334;BME280;27078;46.428;6.256;2023-05-22T09:53:47;96256.03;;;23.79;100.00
41334;BME280;27078;46.428;6.256;2023-05-22T09:56:17;96265.03;;;23.91;100.00
41334;BME280;27078;46.428;6.256;2023-05-22T09:58:44;96258.34;;;23.75;100.00
41334;BME280;27078;46.428;6.256;2023-05-22T10:01:12;96246.53;;;23.51;100.00
41334;BME280;27078;46.428;6.256;2023-05-22T10:03:39;96248.16;;;23.96;100.00
41334;BME280;27078;46.428;6.256;2023-05-22T10:06:06;96237.56;;;24.31;100.00
41334;BME280;27078;46.428;6.256;2023-05-22T10:08:37;96233.41;;;24.47;100.00
41334;BME280;27078;46.428;6.256;2023-05-22T10:11:06;96231.66;;;24.23;100.00
41334;BME280;27078;46.428;6.256;2023-05-22T10:13:33;96229.38;;;24.38;100.00
41334;BME280;27078;46.428;6.256;2023-05-22T10:16:00;96232.22;;;24.43;100.00
41334;BME280;27078;46.428;6.256;2023-05-22T10:18:26;96230.72;;;24.77;100.00
41334;BME280;27078;46.428;6.256;2023-05-22T10:20:52;96236.16;;;24.89;100.00
41334;BME280;27078;46.428;6.256;2023-05-22T10:23:18;96236.03;;;25.08;100.00
41334;BME280;27078;46.428;6.256;2023-05-22T10:25:44;96230.88;;;25.18;100.00
41334;BME280;27078;46.428;6.256;2023-05-22T10:28:10;96235.50;;;25.29;100.00
41334;BME280;27078;46.428;6.256;2023-05-22T10:30:46;96231.63;;;25.37;100.00
41334;BME280;27078;46.428;6.256;2023-05-22T10:33:24;96228.81;;;25.55;100.00
41334;BME280;27078;46.428;6.256;2023-05-22T10:36:02;96225.63;;;25.58;100.00
41334;BME280;27078;46.428;6.256;2023-05-22T10:41:13;96227.72;;;25.92;100.00
41334;BME280;27078;46.428;6.256;2023-05-22T10:43:41;96221.09;;;26.11;100.00
41334;BME280;27078;46.428;6.256;2023-05-22T10:46:07;96219.31;;;26.17;100.00
41334;BME280;27078;46.428;6.256;2023-05-22T10:48:38;96219.75;;;26.26;100.00
41334;BME280;27078;46.428;6.256;2023-05-22T10:51:06;96215.28;;;26.31;100.00
41334;BME280;27078;46.428;6.256;2023-05-22T10:53:33;96213.97;;;26.34;100.00
41334;BME280;27078;46.428;6.256;2023-05-22T10:55:59;96219.38;;;26.34;100.00
41334;BME280;27078;46.428;6.256;2023-05-22T10:58:33;96210.66;;;26.32;100.00
41334;BME280;27078;46.428;6.256;2023-05-22T11:01:18;96210.94;;;26.47;100.00
41334;BME280;27078;46.428;6.256;2023-05-22T11:03:57;96215.34;;;26.36;100.00
41334;BME280;27078;46.428;6.256;2023-05-22T11:07:00;96213.06;;;26.45;100.00
41334;BME280;27078;46.428;6.256;2023-05-22T11:09:44;96207.91;;;26.44;100.00
41334;BME280;27078;46.428;6.256;2023-05-22T11:12:27;96203.13;;;26.34;100.00
41334;BME280;27078;46.428;6.256;2023-05-22T11:15:04;96202.41;;;26.67;100.00
41334;BME280;27078;46.428;6.256;2023-05-22T11:17:32;96201.69;;;26.89;100.00
41334;BME280;27078;46.428;6.256;2023-05-22T11:22:29;96211.16;;;27.03;94.58
41334;BME280;27078;46.428;6.256;2023-05-22T11:24:55;96199.00;;;27.23;90.34
41334;BME280;27078;46.428;6.256;2023-05-22T11:27:20;96196.19;;;27.34;84.92
41334;BME280;27078;46.428;6.256;2023-05-22T11:29:46;96188.56;;;27.70;80.99
41334;BME280;27078;46.428;6.256;2023-05-22T11:32:12;96183.25;;;27.80;76.78
41334;BME280;27078;46.428;6.256;2023-05-22T11:34:45;96186.38;;;27.89;79.11
41334;BME280;27078;46.428;6.256;2023-05-22T11:37:11;96184.13;;;28.03;73.41
41334;BME280;27078;46.428;6.256;2023-05-22T11:39:36;96189.47;;;27.98;76.15
41334;BME280;27078;46.428;6.256;2023-05-22T11:42:01;96197.25;;;28.11;71.66
41334;BME280;27078;46.428;6.256;2023-05-22T11:44:29;96199.84;;;28.01;71.39
41334;BME280;27078;46.428;6.256;2023-05-22T11:46:54;96189.41;;;28.15;72.37
41334;BME280;27078;46.428;6.256;2023-05-22T11:49:21;96188.16;;;28.00;64.76
41334;BME280;27078;46.428;6.256;2023-05-22T11:51:48;96193.97;;;27.70;62.03
41334;BME280;27078;46.428;6.256;2023-05-22T11:54:17;96192.09;;;27.88;64.45
41334;BME280;27078;46.428;6.256;2023-05-22T11:56:44;96186.03;;;28.02;60.63
41334;BME280;27078;46.428;6.256;2023-05-22T11:59:09;96189.44;;;27.76;61.64
41334;BME280;27078;46.428;6.256;2023-05-22T12:01:34;96180.28;;;27.99;59.94
41334;BME280;27078;46.428;6.256;2023-05-22T12:04:01;96177.59;;;28.04;59.55
41334;BME280;27078;46.428;6.256;2023-05-22T12:06:26;96185.91;;;27.92;63.26
41334;BME280;27078;46.428;6.256;2023-05-22T12:08:52;96180.50;;;28.19;57.91
41334;BME280;27078;46.428;6.256;2023-05-22T12:11:17;96185.38;;;28.45;55.45
41334;BME280;27078;46.428;6.256;2023-05-22T12:13:43;96189.81;;;28.51;55.81
41334;BME280;27078;46.428;6.256;2023-05-22T12:16:19;96179.97;;;28.72;53.14
41334;BME280;27078;46.428;6.256;2023-05-22T12:18:51;96172.59;;;28.99;52.29
41334;BME280;27078;46.428;6.256;2023-05-22T12:21:18;96168.97;;;29.21;54.89
41334;BME280;27078;46.428;6.256;2023-05-22T12:23:48;96164.13;;;29.28;50.70
41334;BME280;27078;46.428;6.256;2023-05-22T12:26:14;96159.50;;;29.29;54.95
41334;BME280;27078;46.428;6.256;2023-05-22T12:28:40;96162.03;;;29.08;51.93
41334;BME280;27078;46.428;6.256;2023-05-22T12:31:05;96158.13;;;29.26;53.97
41334;BME280;27078;46.428;6.256;2023-05-22T12:33:30;96157.03;;;29.22;56.07
41334;BME280;27078;46.428;6.256;2023-05-22T12:35:56;96165.03;;;29.07;55.79
41334;BME280;27078;46.428;6.256;2023-05-22T12:38:27;96158.16;;;28.94;57.63
41334;BME280;27078;46.428;6.256;2023-05-22T12:40:54;96160.44;;;28.75;55.44
41334;BME280;27078;46.428;6.256;2023-05-22T12:43:21;96156.50;;;28.60;55.91
41334;BME280;27078;46.428;6.256;2023-05-22T12:45:47;96150.03;;;28.12;56.11
41334;BME280;27078;46.428;6.256;2023-05-22T12:48:13;96148.66;;;28.37;59.72
41334;BME280;27078;46.428;6.256;2023-05-22T12:50:38;96145.66;;;28.60;61.19
41334;BME280;27078;46.428;6.256;2023-05-22T12:53:05;96139.44;;;28.38;57.28
41334;BME280;27078;46.428;6.256;2023-05-22T12:55:31;96148.88;;;27.64;47.32
41334;BME280;27078;46.428;6.256;2023-05-22T12:57:57;96149.63;;;27.59;47.97
41334;BME280;27078;46.428;6.256;2023-05-22T13:00:22;96142.41;;;27.65;50.45
41334;BME280;27078;46.428;6.256;2023-05-22T13:02:48;96155.75;;;27.50;48.59
41334;BME280;27078;46.428;6.256;2023-05-22T13:05:13;96143.09;;;26.99;51.93
41334;BME280;27078;46.428;6.256;2023-05-22T13:07:39;96148.97;;;26.96;55.37